Time,TemperatureF,DewpointF,PressureIn,WindDirection,WindDirectionDegrees,WindSpeedMPH,WindSpeedGustMPH,Humidity,HourlyPrecipIn,Conditions,Clouds,dailyrainin,SoftwareType,DateUTC
2013-03-15 00:02:00,33.0,31.0,-100.00,SSW,210,0.0,1.0,91,0.00,,,-99.99,,2013-03-15 05:02:00,
2013-03-15 00:12:00,32.0,30.0,-100.00,South,185,4.0,4.0,91,0.00,,,-99.99,,2013-03-15 05:12:00,
2013-03-15 00:22:00,32.0,30.0,-100.00,SSW,195,2.0,4.0,92,0.00,,,-99.99,,2013-03-15 05:22:00,
2013-03-15 00:32:00,31.0,29.0,-100.00,SW,230,2.0,3.0,93,0.00,,,-99.99,,2013-03-15 05:32:00,
2013-03-15 00:42:00,31.0,29.0,-100.00,SW,230,2.0,3.0,93,0.00,,,-99.99,,2013-03-15 05:42:00,
2013-03-15 00:52:00,31.0,29.0,-100.00,SW,225,3.0,3.0,94,0.00,,,-99.99,,2013-03-15 05:52:00,
2013-03-15 01:02:00,31.0,29.0,-100.00,SW,225,3.0,3.0,94,0.00,,,-99.99,,2013-03-15 06:02:00,
2013-03-15 01:12:00,31.0,30.0,-100.00,SW,230,2.0,4.0,95,0.00,,,-99.99,,2013-03-15 06:12:00,
2013-03-15 01:22:00,31.0,30.0,-100.00,SW,225,2.0,2.0,95,0.00,,,-99.99,,2013-03-15 06:22:00,
2013-03-15 01:32:00,32.0,31.0,-100.00,SW,235,4.0,4.0,96,0.00,,,-99.99,,2013-03-15 06:32:00,
2013-03-15 01:42:00,32.0,31.0,-100.00,SW,235,4.0,4.0,96,0.00,,,-99.99,,2013-03-15 06:42:00,
2013-03-15 01:52:00,31.0,30.0,-100.00,WSW,245,4.0,5.0,96,0.00,,,-99.99,,2013-03-15 06:52:00,
2013-03-15 02:02:00,31.0,30.0,-100.00,WSW,245,4.0,5.0,96,0.00,,,-99.99,,2013-03-15 07:02:00,
2013-03-15 02:12:00,31.0,30.0,-100.00,WSW,245,4.0,6.0,96,0.00,,,-99.99,,2013-03-15 07:12:00,
2013-03-15 02:22:00,31.0,31.0,-100.00,WSW,250,4.0,6.0,96,0.00,,,-99.99,,2013-03-15 07:22:00,
2013-03-15 02:32:00,31.0,30.0,-100.00,West,260,3.0,4.0,96,0.00,,,-99.99,,2013-03-15 07:32:00,
2013-03-15 02:42:00,31.0,30.0,-100.00,West,260,3.0,4.0,96,0.00,,,-99.99,,2013-03-15 07:42:00,
2013-03-15 02:52:00,31.0,30.0,-100.00,West,260,2.0,3.0,97,0.00,,,-99.99,,2013-03-15 07:52:00,
2013-03-15 03:02:00,31.0,30.0,-100.00,West,260,2.0,3.0,97,0.00,,,-99.99,,2013-03-15 08:02:00,
2013-03-15 03:12:00,31.0,30.0,-100.00,WSW,240,2.0,3.0,97,0.00,,,-99.99,,2013-03-15 08:12:00,
2013-03-15 03:22:00,31.0,30.0,-100.00,WSW,245,1.0,2.0,97,0.00,,,-99.99,,2013-03-15 08:22:00,
2013-03-15 03:32:00,31.0,30.0,-100.00,West,270,2.0,2.0,97,0.00,,,-99.99,,2013-03-15 08:32:00,
2013-03-15 03:42:00,31.0,30.0,-100.00,West,270,2.0,2.0,97,0.00,,,-99.99,,2013-03-15 08:42:00,
2013-03-15 03:52:00,30.0,29.0,-100.00,WNW,295,0.0,0.0,97,0.00,,,-99.99,,2013-03-15 08:52:00,
2013-03-15 04:02:00,30.0,29.0,-100.00,WNW,295,0.0,0.0,97,0.00,,,-99.99,,2013-03-15 09:02:00,
2013-03-15 04:12:00,30.0,30.0,-100.00,West,270,0.0,0.0,97,0.00,,,-99.99,,2013-03-15 09:12:00,
2013-03-15 04:22:00,30.0,29.0,-100.00,SSW,210,1.0,1.0,97,0.00,,,-99.99,,2013-03-15 09:22:00,
2013-03-15 04:33:00,30.0,29.0,-100.00,SW,215,3.0,3.0,98,0.00,,,-99.99,,2013-03-15 09:33:00,
2013-03-15 04:43:00,30.0,29.0,-100.00,SW,215,3.0,3.0,98,0.00,,,-99.99,,2013-03-15 09:43:00,
2013-03-15 04:52:00,31.0,30.0,-100.00,WSW,255,2.0,2.0,98,0.00,,,-99.99,,2013-03-15 09:52:00,
2013-03-15 05:03:00,31.0,30.0,-100.00,WSW,255,2.0,2.0,98,0.00,,,-99.99,,2013-03-15 10:03:00,
2013-03-15 05:12:00,30.0,30.0,-100.00,WSW,240,2.0,2.0,98,0.00,,,-99.99,,2013-03-15 10:12:00,
2013-03-15 05:23:00,30.0,30.0,-100.00,SW,225,1.0,2.0,98,0.00,,,-99.99,,2013-03-15 10:23:00,
2013-03-15 05:33:00,30.0,30.0,-100.00,SW,225,2.0,2.0,98,0.00,,,-99.99,,2013-03-15 10:33:00,
2013-03-15 05:42:00,30.0,30.0,-100.00,SW,225,2.0,2.0,98,0.00,,,-99.99,,2013-03-15 10:42:00,
2013-03-15 05:52:00,31.0,30.0,-100.00,SW,235,2.0,2.0,98,0.00,,,-99.99,,2013-03-15 10:52:00,
2013-03-15 06:03:00,31.0,30.0,-100.00,SW,235,2.0,2.0,98,0.00,,,-99.99,,2013-03-15 11:03:00,
2013-03-15 06:12:00,31.0,30.0,-100.00,SW,225,2.0,2.0,98,0.00,,,-99.99,,2013-03-15 11:12:00,
2013-03-15 06:22:00,31.0,30.0,-100.00,WSW,240,4.0,4.0,98,0.00,,,-99.99,,2013-03-15 11:22:00,
2013-03-15 06:32:00,31.0,30.0,-100.00,WSW,245,2.0,4.0,98,0.00,,,-99.99,,2013-03-15 11:32:00,
2013-03-15 06:42:00,31.0,30.0,-100.00,WSW,245,2.0,4.0,98,0.00,,,-99.99,,2013-03-15 11:42:00,
2013-03-15 06:52:00,31.0,30.0,-100.00,WSW,255,0.0,2.0,98,0.00,,,-99.99,,2013-03-15 11:52:00,
2013-03-15 07:02:00,31.0,30.0,-100.00,WSW,255,0.0,2.0,98,0.00,,,-99.99,,2013-03-15 12:02:00,
2013-03-15 07:12:00,31.0,31.0,-100.00,SW,230,0.0,0.0,98,0.00,,,-99.99,,2013-03-15 12:12:00,
2013-03-15 07:22:00,31.0,30.0,-100.00,NE,40,0.0,0.0,98,0.00,,,-99.99,,2013-03-15 12:22:00,
2013-03-15 07:32:00,31.0,31.0,-100.00,NNE,15,2.0,2.0,98,0.00,,,-99.99,,2013-03-15 12:32:00,
2013-03-15 07:42:00,31.0,31.0,-100.00,NNE,15,2.0,2.0,98,0.00,,,-99.99,,2013-03-15 12:42:00,
2013-03-15 07:52:00,31.0,31.0,-100.00,NE,35,2.0,3.0,98,0.00,,,-99.99,,2013-03-15 12:52:00,
2013-03-15 08:02:00,31.0,31.0,-100.00,NE,35,2.0,3.0,98,0.00,,,-99.99,,2013-03-15 13:02:00,
2013-03-15 08:12:00,31.0,31.0,-100.00,NE,35,1.0,2.0,98,0.00,,,-99.99,,2013-03-15 13:12:00,
2013-03-15 08:22:00,31.0,31.0,-100.00,ENE,70,1.0,2.0,98,0.00,,,-99.99,,2013-03-15 13:22:00,
2013-03-15 08:32:00,32.0,32.0,-100.00,ESE,120,2.0,2.0,98,0.00,,,-99.99,,2013-03-15 13:32:00,
2013-03-15 08:42:00,32.0,32.0,-100.00,ESE,120,2.0,2.0,98,0.00,,,-99.99,,2013-03-15 13:42:00,
2013-03-15 08:52:00,33.0,32.0,-100.00,ESE,120,2.0,3.0,98,0.00,,,-99.99,,2013-03-15 13:52:00,
2013-03-15 09:02:00,33.0,32.0,-100.00,ESE,120,2.0,3.0,98,0.00,,,-99.99,,2013-03-15 14:02:00,
2013-03-15 09:12:00,34.0,33.0,-100.00,South,170,0.0,2.0,98,0.00,,,-99.99,,2013-03-15 14:12:00,
2013-03-15 09:22:00,35.0,34.0,-100.00,ESE,110,0.0,2.0,98,0.00,,,-99.99,,2013-03-15 14:22:00,
2013-03-15 09:32:00,36.0,35.0,-100.00,ESE,105,3.0,4.0,97,0.00,,,-99.99,,2013-03-15 14:32:00,
2013-03-15 09:42:00,36.0,35.0,-100.00,ESE,105,3.0,4.0,97,0.00,,,-99.99,,2013-03-15 14:42:00,
2013-03-15 09:52:00,36.0,36.0,-100.00,SE,135,2.0,3.0,96,0.00,,,-99.99,,2013-03-15 14:52:00,
2013-03-15 10:02:00,36.0,36.0,-100.00,SE,135,2.0,3.0,96,0.00,,,-99.99,,2013-03-15 15:02:00,
2013-03-15 10:12:00,37.0,36.0,-100.00,SSE,160,4.0,5.0,95,0.00,,,-99.99,,2013-03-15 15:12:00,
2013-03-15 10:22:00,37.0,36.0,-100.00,SE,145,5.0,6.0,95,0.00,,,-99.99,,2013-03-15 15:22:00,
2013-03-15 10:33:00,38.0,36.0,-100.00,ESE,110,6.0,7.0,93,0.00,,,-99.99,,2013-03-15 15:33:00,
2013-03-15 10:42:00,38.0,36.0,-100.00,ESE,110,6.0,7.0,93,0.00,,,-99.99,,2013-03-15 15:42:00,
2013-03-15 10:52:00,40.0,37.0,-100.00,ESE,105,4.0,6.0,90,0.00,,,-99.99,,2013-03-15 15:52:00,
2013-03-15 11:02:00,40.0,37.0,-100.00,ESE,105,4.0,6.0,90,0.00,,,-99.99,,2013-03-15 16:02:00,
2013-03-15 11:12:00,40.0,37.0,-100.00,ESE,110,6.0,7.0,88,0.00,,,-99.99,,2013-03-15 16:12:00,
2013-03-15 11:22:00,41.0,38.0,-100.00,ESE,120,6.0,7.0,87,0.00,,,-99.99,,2013-03-15 16:22:00,
2013-03-15 11:32:00,43.0,38.0,-100.00,SE,130,7.0,9.0,82,0.00,,,-99.99,,2013-03-15 16:32:00,
2013-03-15 11:42:00,43.0,38.0,-100.00,SE,130,7.0,9.0,82,0.00,,,-99.99,,2013-03-15 16:42:00,
2013-03-15 11:52:00,45.0,39.0,-100.00,SSE,150,6.0,8.0,79,0.00,,,-99.99,,2013-03-15 16:52:00,
2013-03-15 12:02:00,45.0,39.0,-100.00,SSE,150,6.0,8.0,79,0.00,,,-99.99,,2013-03-15 17:02:00,
2013-03-15 12:12:00,46.0,40.0,-100.00,SSE,165,6.0,8.0,78,0.00,,,-99.99,,2013-03-15 17:12:00,
2013-03-15 12:22:00,46.0,39.0,-100.00,SE,145,8.0,9.0,75,0.00,,,-99.99,,2013-03-15 17:22:00,
2013-03-15 12:32:00,48.0,39.0,-100.00,SE,125,7.0,11.0,71,0.00,,,-99.99,,2013-03-15 17:32:00,
2013-03-15 12:52:00,50.0,39.0,-100.00,ESE,110,9.0,11.0,66,0.00,,,-99.99,,2013-03-15 17:52:00,
2013-03-15 13:02:00,50.0,39.0,-100.00,ESE,110,9.0,11.0,66,0.00,,,-99.99,,2013-03-15 18:02:00,
2013-03-15 13:12:00,52.0,40.0,-100.00,SE,125,7.0,12.0,63,0.00,,,-99.99,,2013-03-15 18:12:00,
2013-03-15 13:22:00,52.0,39.0,-100.00,ESE,110,7.0,11.0,62,0.00,,,-99.99,,2013-03-15 18:22:00,
2013-03-15 13:32:00,53.0,40.0,-100.00,East,95,6.0,9.0,61,0.00,,,-99.99,,2013-03-15 18:32:00,
2013-03-15 13:42:00,53.0,40.0,-100.00,East,95,6.0,9.0,61,0.00,,,-99.99,,2013-03-15 18:42:00,
2013-03-15 13:52:00,53.0,40.0,-100.00,ENE,70,7.0,8.0,62,0.00,,,-99.99,,2013-03-15 18:52:00,
2013-03-15 14:02:00,53.0,40.0,-100.00,ENE,70,7.0,8.0,62,0.00,,,-99.99,,2013-03-15 19:02:00,
2013-03-15 14:12:00,52.0,41.0,-100.00,ENE,70,7.0,9.0,64,0.00,,,-99.99,,2013-03-15 19:12:00,
2013-03-15 14:22:00,53.0,41.0,-100.00,ENE,70,7.0,11.0,64,0.00,,,-99.99,,2013-03-15 19:22:00,
2013-03-15 14:32:00,54.0,40.0,-100.00,East,85,9.0,12.0,58,0.00,,,-99.99,,2013-03-15 19:32:00,
2013-03-15 14:42:00,54.0,40.0,-100.00,East,85,9.0,12.0,58,0.00,,,-99.99,,2013-03-15 19:42:00,
2013-03-15 14:52:00,54.0,40.0,-100.00,ENE,75,7.0,10.0,59,0.00,,,-99.99,,2013-03-15 19:52:00,
2013-03-15 15:02:00,54.0,40.0,-100.00,ENE,75,7.0,10.0,59,0.00,,,-99.99,,2013-03-15 20:02:00,
2013-03-15 15:12:00,54.0,41.0,-100.00,ENE,70,7.0,9.0,60,0.00,,,-99.99,,2013-03-15 20:12:00,
2013-03-15 15:22:00,53.0,41.0,-100.00,ENE,60,7.0,9.0,64,0.00,,,-99.99,,2013-03-15 20:22:00,
2013-03-15 15:32:00,53.0,42.0,-100.00,ENE,70,7.0,9.0,66,0.00,,,-99.99,,2013-03-15 20:32:00,
2013-03-15 15:42:00,53.0,42.0,-100.00,ENE,70,7.0,9.0,66,0.00,,,-99.99,,2013-03-15 20:42:00,
2013-03-15 15:52:00,53.0,41.0,-100.00,East,80,7.0,10.0,64,0.00,,,-99.99,,2013-03-15 20:52:00,
2013-03-15 16:02:00,53.0,41.0,-100.00,East,80,7.0,10.0,64,0.00,,,-99.99,,2013-03-15 21:02:00,
2013-03-15 16:12:00,52.0,41.0,-100.00,East,90,7.0,10.0,65,0.00,,,-99.99,,2013-03-15 21:12:00,
2013-03-15 16:22:00,52.0,40.0,-100.00,East,90,9.0,10.0,63,0.00,,,-99.99,,2013-03-15 21:22:00,
2013-03-15 16:33:00,53.0,41.0,-100.00,East,85,7.0,9.0,64,0.00,,,-99.99,,2013-03-15 21:33:00,
2013-03-15 16:43:00,53.0,41.0,-100.00,East,85,7.0,9.0,64,0.00,,,-99.99,,2013-03-15 21:43:00,
2013-03-15 16:52:00,52.0,41.0,-100.00,ENE,65,7.0,9.0,65,0.00,,,-99.99,,2013-03-15 21:52:00,
2013-03-15 17:03:00,52.0,41.0,-100.00,ENE,65,7.0,9.0,65,0.00,,,-99.99,,2013-03-15 22:03:00,
2013-03-15 17:13:00,52.0,40.0,-100.00,ENE,75,7.0,10.0,64,0.00,,,-99.99,,2013-03-15 22:13:00,
2013-03-15 17:22:00,51.0,41.0,-100.00,ENE,65,7.0,11.0,66,0.00,,,-99.99,,2013-03-15 22:22:00,
2013-03-15 17:32:00,51.0,40.0,-100.00,ENE,60,8.0,10.0,66,0.00,,,-99.99,,2013-03-15 22:32:00,
2013-03-15 17:42:00,51.0,40.0,-100.00,ENE,60,8.0,10.0,66,0.00,,,-99.99,,2013-03-15 22:42:00,
2013-03-15 17:52:00,50.0,41.0,-100.00,NE,55,7.0,10.0,69,0.00,,,-99.99,,2013-03-15 22:52:00,
2013-03-15 18:02:00,50.0,41.0,-100.00,NE,55,7.0,10.0,69,0.00,,,-99.99,,2013-03-15 23:02:00,
2013-03-15 18:12:00,50.0,41.0,-100.00,NE,55,7.0,9.0,70,0.00,,,-99.99,,2013-03-15 23:12:00,
2013-03-15 18:22:00,50.0,41.0,-100.00,ENE,60,7.0,9.0,71,0.00,,,-99.99,,2013-03-15 23:22:00,
2013-03-15 18:32:00,49.0,41.0,-100.00,ENE,65,6.0,8.0,72,0.00,,,-99.99,,2013-03-15 23:32:00,
2013-03-15 18:42:00,49.0,41.0,-100.00,ENE,65,6.0,8.0,72,0.00,,,-99.99,,2013-03-15 23:42:00,
2013-03-15 18:53:00,48.0,40.0,-100.00,ENE,65,7.0,9.0,73,0.00,,,-99.99,,2013-03-15 23:53:00,
2013-03-15 19:02:00,48.0,40.0,-100.00,ENE,65,7.0,9.0,73,0.00,,,-99.99,,2013-03-16 00:02:00,
2013-03-15 19:12:00,47.0,40.0,-100.00,ENE,65,6.0,8.0,75,0.00,,,-99.99,,2013-03-16 00:12:00,
2013-03-15 19:22:00,47.0,40.0,-100.00,ENE,65,4.0,8.0,75,0.00,,,-99.99,,2013-03-16 00:22:00,
2013-03-15 19:32:00,45.0,39.0,-100.00,ENE,65,4.0,6.0,80,0.00,,,-99.99,,2013-03-16 00:32:00,
2013-03-15 19:42:00,45.0,39.0,-100.00,ENE,65,4.0,6.0,80,0.00,,,-99.99,,2013-03-16 00:42:00,
2013-03-15 19:52:00,45.0,39.0,-100.00,ENE,70,6.0,7.0,79,0.00,,,-99.99,,2013-03-16 00:52:00,
2013-03-15 20:02:00,45.0,39.0,-100.00,ENE,70,6.0,7.0,79,0.00,,,-99.99,,2013-03-16 01:02:00,
2013-03-15 20:12:00,44.0,39.0,-100.00,ENE,75,6.0,7.0,80,0.00,,,-99.99,,2013-03-16 01:12:00,
2013-03-15 20:21:00,44.0,38.0,-100.00,ENE,70,4.0,6.0,81,0.00,,,-99.99,,2013-03-16 01:21:00,
2013-03-15 20:32:00,43.0,38.0,-100.00,ENE,70,4.0,6.0,83,0.00,,,-99.99,,2013-03-16 01:32:00,
2013-03-15 20:42:00,43.0,38.0,-100.00,ENE,70,4.0,6.0,83,0.00,,,-99.99,,2013-03-16 01:42:00,
2013-03-15 20:52:00,42.0,38.0,-100.00,ENE,65,4.0,5.0,85,0.00,,,-99.99,,2013-03-16 01:52:00,
2013-03-15 21:02:00,42.0,38.0,-100.00,ENE,65,4.0,5.0,85,0.00,,,-99.99,,2013-03-16 02:02:00,
2013-03-15 21:12:00,41.0,37.0,-100.00,NE,50,3.0,4.0,87,0.00,,,-99.99,,2013-03-16 02:12:00,
2013-03-15 21:22:00,40.0,37.0,-100.00,NE,45,2.0,2.0,87,0.00,,,-99.99,,2013-03-16 02:22:00,
2013-03-15 21:32:00,39.0,36.0,-100.00,NE,40,2.0,3.0,89,0.00,,,-99.99,,2013-03-16 02:32:00,
2013-03-15 21:42:00,39.0,36.0,-100.00,NE,40,2.0,3.0,89,0.00,,,-99.99,,2013-03-16 02:42:00,
2013-03-15 21:52:00,39.0,37.0,-100.00,NE,55,3.0,4.0,92,0.00,,,-99.99,,2013-03-16 02:52:00,
2013-03-15 22:02:00,39.0,37.0,-100.00,NE,55,3.0,4.0,92,0.00,,,-99.99,,2013-03-16 03:02:00,
2013-03-15 22:12:00,38.0,36.0,-100.00,NE,45,3.0,3.0,92,0.00,,,-99.99,,2013-03-16 03:12:00,
2013-03-15 22:22:00,38.0,36.0,-100.00,NE,35,2.0,3.0,93,0.00,,,-99.99,,2013-03-16 03:22:00,
2013-03-15 22:32:00,37.0,36.0,-100.00,North,5,5.0,6.0,94,0.00,,,-99.99,,2013-03-16 03:32:00,
2013-03-15 22:43:00,37.0,36.0,-100.00,North,5,5.0,6.0,94,0.00,,,-99.99,,2013-03-16 03:43:00,
2013-03-15 22:52:00,38.0,36.0,-100.00,North,5,3.0,6.0,95,0.00,,,-99.99,,2013-03-16 03:52:00,
2013-03-15 23:02:00,38.0,36.0,-100.00,North,5,3.0,6.0,95,0.00,,,-99.99,,2013-03-16 04:02:00,
2013-03-15 23:12:00,37.0,36.0,-100.00,North,355,6.0,6.0,95,0.00,,,-99.99,,2013-03-16 04:12:00,
2013-03-15 23:22:00,37.0,36.0,-100.00,North,350,4.0,7.0,95,0.00,,,-99.99,,2013-03-16 04:22:00,
2013-03-15 23:32:00,37.0,36.0,-100.00,North,350,6.0,11.0,95,0.00,,,-99.99,,2013-03-16 04:32:00,
2013-03-15 23:42:00,37.0,36.0,-100.00,North,350,6.0,11.0,95,0.00,,,-99.99,,2013-03-16 04:42:00,
2013-03-15 23:52:00,37.0,36.0,-100.00,NNW,340,6.0,9.0,96,0.00,,,-99.99,,2013-03-16 04:52:00,